Time;durP1;ratioP1;P1;durP2;ratioP2;P2;SDS_P1;SDS_P2;PMS_P1;PMS_P2;Temp;Humidity;BMP_temperature;BMP_pressure;BME280_temperature;BME280_humidity;BME280_pressure;Samples;Min_cycle;Max_cycle;Signal;HPM_P1;HPM_P2
2022/04/15 00:23:18;;;;;;;1.52;1.40;;;;;;;;;;4285044;28;20323;-65
2022/04/15 00:25:44;;;;;;;1.55;1.45;;;;;;;;;;4204669;34;20090;-65
2022/04/15 00:28:11;;;;;;;1.65;1.55;;;;;;;;;;4204045;34;20549;-65
2022/04/15 00:30:36;;;;;;;1.42;1.33;;;;;;;;;;4204791;34;20124;-65
2022/04/15 00:33:02;;;;;;;1.42;1.33;;;;;;;;;;4204424;34;20128;-65
2022/04/15 00:35:28;;;;;;;1.62;1.52;;;;;;;;;;4204763;34;20129;-65
2022/04/15 00:37:54;;;;;;;1.40;1.30;;;;;;;;;;4204687;34;20233;-64
2022/04/15 00:40:20;;;;;;;1.40;1.30;;;;;;;;;;4204581;34;20209;-64
2022/04/15 00:42:46;;;;;;;1.70;1.60;;;;;;;;;;4204890;34;20122;-64
2022/04/15 00:45:13;;;;;;;1.40;1.30;;;;;;;;;;4191971;34;20133;-64
2022/04/15 00:47:50;;;;;;;1.50;1.40;;;;;;;;;;4204602;34;20462;-65
2022/04/15 00:50:20;;;;;;;1.37;1.27;;;;;;;;;;4204708;34;20232;-64
2022/04/15 00:52:49;;;;;;;1.50;1.40;;;;;;;;;;4204297;34;20501;-65
2022/04/15 00:55:17;;;;;;;1.62;1.45;;;;;;;;;;4191503;34;20205;-64
2022/04/15 00:57:45;;;;;;;1.35;1.25;;;;;;;;;;4188867;34;20117;-64
2022/04/15 01:00:12;;;;;;;1.35;1.27;;;;;;;;;;4178124;34;20229;-64
2022/04/15 01:02:39;;;;;;;1.30;1.20;;;;;;;;;;4178419;34;20138;-63
2022/04/15 01:05:07;;;;;;;1.70;1.55;;;;;;;;;;4190735;34;20178;-64
2022/04/15 01:07:35;;;;;;;1.02;1.02;;;;;;;;;;4190898;34;20133;-64
2022/04/15 01:10:04;;;;;;;1.40;1.30;;;;;;;;;;4190563;34;20090;-64
2022/04/15 01:12:31;;;;;;;1.30;1.20;;;;;;;;;;4190610;34;20142;-64
2022/04/15 01:15:00;;;;;;;1.37;1.27;;;;;;;;;;4189355;34;20117;-63
2022/04/15 01:17:29;;;;;;;1.50;1.40;;;;;;;;;;4177624;34;20550;-63
2022/04/15 01:19:56;;;;;;;1.30;1.20;;;;;;;;;;4177674;34;20101;-63
2022/04/15 01:22:24;;;;;;;1.30;1.20;;;;;;;;;;4188954;34;20114;-63
2022/04/15 01:24:50;;;;;;;2.05;1.80;;;;;;;;;;4192920;34;20094;-63
2022/04/15 01:27:35;;;;;;;1.33;1.23;;;;;;;;;;4218229;34;20227;-64
2022/04/15 01:30:05;;;;;;;2.20;1.85;;;;;;;;;;4205236;34;20446;-64
2022/04/15 01:32:31;;;;;;;1.15;1.15;;;;;;;;;;4218295;34;20125;-64
2022/04/15 01:34:57;;;;;;;1.30;1.20;;;;;;;;;;4217822;34;20125;-64
2022/04/15 01:37:24;;;;;;;1.17;1.17;;;;;;;;;;4218031;34;20118;-64
2022/04/15 01:39:50;;;;;;;2.20;1.50;;;;;;;;;;4217828;34;20453;-64
2022/04/15 01:42:17;;;;;;;1.40;1.30;;;;;;;;;;4205002;34;20161;-64
2022/04/15 01:44:44;;;;;;;1.20;1.20;;;;;;;;;;4217748;34;20546;-65
2022/04/15 01:47:10;;;;;;;1.08;1.00;;;;;;;;;;4217802;34;20523;-65
2022/04/15 01:49:37;;;;;;;1.05;1.05;;;;;;;;;;4217730;34;20517;-65
2022/04/15 01:52:04;;;;;;;1.77;1.30;;;;;;;;;;4217810;34;20125;-65
2022/04/15 01:54:30;;;;;;;1.20;1.20;;;;;;;;;;4217937;34;20129;-65
2022/04/15 01:56:57;;;;;;;1.67;1.30;;;;;;;;;;4217989;34;20121;-65
2022/04/15 01:59:24;;;;;;;1.25;1.12;;;;;;;;;;4194708;34;20109;-67
2022/04/15 02:01:54;;;;;;;1.50;1.40;;;;;;;;;;4202711;34;20106;-67
2022/04/15 02:04:24;;;;;;;1.48;1.20;;;;;;;;;;4203632;34;20129;-66
2022/04/15 02:06:50;;;;;;;1.67;1.20;;;;;;;;;;4190572;34;20537;-66
2022/04/15 02:09:16;;;;;;;1.27;1.17;;;;;;;;;;4204118;34;20109;-67
2022/04/15 02:11:42;;;;;;;1.15;1.15;;;;;;;;;;4205940;34;20118;-66
2022/04/15 02:14:08;;;;;;;1.10;1.10;;;;;;;;;;4205767;34;20217;-66
2022/04/15 02:16:35;;;;;;;0.90;0.90;;;;;;;;;;4193035;34;20117;-66
2022/04/15 02:19:01;;;;;;;1.20;1.10;;;;;;;;;;4205754;34;20105;-67
2022/04/15 02:21:27;;;;;;;1.05;1.05;;;;;;;;;;4193050;34;20102;-67
2022/04/15 02:23:53;;;;;;;1.30;1.20;;;;;;;;;;4192989;34;20113;-67
2022/04/15 02:26:19;;;;;;;1.10;1.10;;;;;;;;;;4205640;34;20120;-67
2022/04/15 02:28:45;;;;;;;1.10;1.10;;;;;;;;;;4219463;34;20460;-67
2022/04/15 02:31:11;;;;;;;2.37;1.20;;;;;;;;;;4219520;34;20118;-67
2022/04/15 02:33:37;;;;;;;1.23;1.10;;;;;;;;;;4219524;34;20101;-67
2022/04/15 02:36:03;;;;;;;1.25;1.20;;;;;;;;;;4219831;34;20113;-66
2022/04/15 02:38:29;;;;;;;1.00;1.00;;;;;;;;;;4219441;34;20512;-66
2022/04/15 02:40:55;;;;;;;1.35;1.25;;;;;;;;;;4219565;34;20513;-66
2022/04/15 02:43:25;;;;;;;1.08;0.98;;;;;;;;;;4217848;34;20141;-66
2022/04/15 02:45:51;;;;;;;1.00;1.00;;;;;;;;;;4206407;34;20093;-66
2022/04/15 02:48:17;;;;;;;1.30;1.20;;;;;;;;;;4206369;34;20518;-66
2022/04/15 02:50:45;;;;;;;1.75;1.42;;;;;;;;;;4219726;34;20120;-66
2022/04/15 02:53:11;;;;;;;1.55;1.30;;;;;;;;;;4219220;34;20537;-66
2022/04/15 02:55:37;;;;;;;1.48;1.30;;;;;;;;;;4219628;34;20212;-65
2022/04/15 02:58:03;;;;;;;1.37;1.23;;;;;;;;;;4219232;34;20648;-66
2022/04/15 03:00:29;;;;;;;2.05;1.35;;;;;;;;;;4219267;34;20098;-66
2022/04/15 03:02:55;;;;;;;2.60;1.10;;;;;;;;;;4219412;34;20176;-66
2022/04/15 03:05:23;;;;;;;1.23;1.12;;;;;;;;;;4219455;34;20205;-66
2022/04/15 03:07:49;;;;;;;1.30;1.20;;;;;;;;;;4206094;34;20807;-65
2022/04/15 03:10:15;;;;;;;1.00;1.00;;;;;;;;;;4219269;34;20105;-66
2022/04/15 03:12:41;;;;;;;1.20;1.20;;;;;;;;;;4219553;34;20513;-66
2022/04/15 03:15:09;;;;;;;1.10;1.10;;;;;;;;;;4206311;34;20120;-65
2022/04/15 03:17:35;;;;;;;1.23;1.00;;;;;;;;;;4219345;34;20108;-67
2022/04/15 03:20:03;;;;;;;1.20;1.20;;;;;;;;;;4218754;34;20206;-66
2022/04/15 03:22:30;;;;;;;1.30;1.20;;;;;;;;;;4219127;34;20109;-67
2022/04/15 03:24:56;;;;;;;1.55;1.45;;;;;;;;;;4206027;34;20611;-66
2022/04/15 03:27:22;;;;;;;1.35;1.25;;;;;;;;;;4205990;34;20113;-67
2022/04/15 03:29:48;;;;;;;1.17;1.17;;;;;;;;;;4219001;34;20615;-65
2022/04/15 03:32:14;;;;;;;1.02;1.00;;;;;;;;;;4218973;34;20209;-66
2022/04/15 03:34:40;;;;;;;1.00;1.00;;;;;;;;;;4219201;34;20792;-65
2022/04/15 03:37:06;;;;;;;1.33;1.20;;;;;;;;;;4219212;33;20120;-65
2022/04/15 03:39:32;;;;;;;2.17;1.50;;;;;;;;;;4219337;34;20104;-65
2022/04/15 03:41:58;;;;;;;1.30;1.20;;;;;;;;;;4218950;34;20125;-67
2022/04/15 03:44:24;;;;;;;1.30;1.20;;;;;;;;;;4218739;33;20185;-68
2022/04/15 03:46:50;;;;;;;1.62;1.30;;;;;;;;;;4205940;34;20209;-66
2022/04/15 03:49:16;;;;;;;1.25;1.15;;;;;;;;;;4218841;34;20538;-66
2022/04/15 03:51:42;;;;;;;1.30;1.20;;;;;;;;;;4217413;34;20136;-67
2022/04/15 03:54:08;;;;;;;2.35;1.20;;;;;;;;;;4205785;34;20459;-66
2022/04/15 03:56:34;;;;;;;1.60;1.45;;;;;;;;;;4205877;34;20203;-66
2022/04/15 03:59:00;;;;;;;1.10;1.10;;;;;;;;;;4218683;34;20474;-66
2022/04/15 04:01:26;;;;;;;1.40;1.30;;;;;;;;;;4218686;34;20225;-66
2022/04/15 04:03:52;;;;;;;1.50;1.40;;;;;;;;;;4218643;34;20522;-68
2022/04/15 04:06:18;;;;;;;1.37;1.30;;;;;;;;;;4205724;34;20441;-68
2022/04/15 04:08:49;;;;;;;1.35;1.25;;;;;;;;;;4218672;34;20173;-65
2022/04/15 04:11:19;;;;;;;1.35;1.08;;;;;;;;;;4218673;34;20527;-65
2022/04/15 04:13:45;;;;;;;1.73;1.62;;;;;;;;;;4218872;34;20113;-65
2022/04/15 04:16:12;;;;;;;1.08;1.08;;;;;;;;;;4218709;34;20119;-66
2022/04/15 04:18:39;;;;;;;1.15;1.15;;;;;;;;;;4218986;34;20541;-65
2022/04/15 04:21:07;;;;;;;1.15;1.10;;;;;;;;;;4218531;34;20102;-71
2022/04/15 04:23:34;;;;;;;1.00;1.00;;;;;;;;;;4218574;34;20586;-67
2022/04/15 04:26:01;;;;;;;1.45;1.30;;;;;;;;;;4217134;34;20533;-69
2022/04/15 04:28:27;;;;;;;1.73;1.62;;;;;;;;;;4217149;33;20098;-67
2022/04/15 04:30:53;;;;;;;1.65;1.30;;;;;;;;;;4218462;34;20431;-68
2022/04/15 04:33:20;;;;;;;2.67;1.73;;;;;;;;;;4217597;34;20094;-67
2022/04/15 04:35:46;;;;;;;1.50;1.40;;;;;;;;;;4218449;33;20518;-68
2022/04/15 04:38:12;;;;;;;1.52;1.42;;;;;;;;;;4218611;34;20097;-68
2022/04/15 04:40:38;;;;;;;2.87;1.30;;;;;;;;;;4218497;34;20093;-67
2022/04/15 04:43:04;;;;;;;1.50;1.40;;;;;;;;;;4217813;34;20114;-71
2022/04/15 04:45:31;;;;;;;1.73;1.35;;;;;;;;;;4205279;34;20133;-69
2022/04/15 04:47:59;;;;;;;1.40;1.30;;;;;;;;;;4205430;34;20507;-61
2022/04/15 04:50:25;;;;;;;5.45;1.40;;;;;;;;;;4218532;34;20538;-61
2022/04/15 04:52:52;;;;;;;1.12;0.90;;;;;;;;;;4218538;33;20104;-62
2022/04/15 04:55:18;;;;;;;1.50;1.40;;;;;;;;;;4217090;34;20187;-61
2022/04/15 04:57:45;;;;;;;1.85;1.40;;;;;;;;;;4193886;34;20156;-60
2022/04/15 05:00:12;;;;;;;2.45;1.50;;;;;;;;;;4193690;34;20106;-61
2022/04/15 05:02:38;;;;;;;1.30;1.20;;;;;;;;;;4218322;34;20128;-62
2022/04/15 05:05:05;;;;;;;1.37;1.20;;;;;;;;;;4218012;34;20231;-60
2022/04/15 05:07:31;;;;;;;1.10;1.10;;;;;;;;;;4218274;34;20457;-60
2022/04/15 05:09:58;;;;;;;1.33;1.20;;;;;;;;;;4205192;34;20110;-61
2022/04/15 05:12:23;;;;;;;1.25;1.25;;;;;;;;;;4218226;34;20221;-59
2022/04/15 05:14:50;;;;;;;1.30;1.20;;;;;;;;;;4218344;33;20541;-60
2022/04/15 05:17:16;;;;;;;1.05;1.00;;;;;;;;;;4218105;33;20127;-60
2022/04/15 05:19:43;;;;;;;1.12;1.10;;;;;;;;;;4218021;34;20443;-61
2022/04/15 05:22:09;;;;;;;1.30;1.20;;;;;;;;;;4217913;34;20109;-61
2022/04/15 05:24:35;;;;;;;1.20;1.10;;;;;;;;;;4217800;34;20498;-62
2022/04/15 05:27:01;;;;;;;2.65;1.30;;;;;;;;;;4217855;34;20113;-61
2022/04/15 05:29:27;;;;;;;1.98;1.00;;;;;;;;;;4217933;34;20101;-61
2022/04/15 05:31:53;;;;;;;1.40;1.10;;;;;;;;;;4217708;34;20137;-59
2022/04/15 05:34:19;;;;;;;1.10;1.10;;;;;;;;;;4217973;34;20093;-58
2022/04/15 05:36:45;;;;;;;1.20;1.20;;;;;;;;;;4218064;34;20137;-61
2022/04/15 05:39:11;;;;;;;1.25;1.15;;;;;;;;;;4204875;34;20093;-60
2022/04/15 05:41:37;;;;;;;1.00;1.00;;;;;;;;;;4217999;34;20137;-64
2022/04/15 05:44:04;;;;;;;1.30;1.20;;;;;;;;;;4218832;34;20465;-64
2022/04/15 05:46:32;;;;;;;1.10;1.10;;;;;;;;;;4219862;34;20145;-63
2022/04/15 05:48:59;;;;;;;1.10;1.10;;;;;;;;;;4219915;33;20085;-64
2022/04/15 05:51:24;;;;;;;1.30;1.20;;;;;;;;;;4220034;34;20120;-64
2022/04/15 05:53:50;;;;;;;1.17;1.17;;;;;;;;;;4195266;34;20105;-64
2022/04/15 05:56:16;;;;;;;1.30;1.10;;;;;;;;;;4219777;34;20106;-64
2022/04/15 05:58:42;;;;;;;1.10;1.10;;;;;;;;;;4219989;34;20193;-65
2022/04/15 06:01:12;;;;;;;1.40;1.30;;;;;;;;;;4206626;34;20105;-65
2022/04/15 06:03:38;;;;;;;2.42;1.55;;;;;;;;;;4219895;34;20442;-63
2022/04/15 06:06:04;;;;;;;2.10;1.62;;;;;;;;;;4219537;34;20105;-64
2022/04/15 06:08:31;;;;;;;2.95;1.40;;;;;;;;;;4207266;34;20522;-65
2022/04/15 06:10:57;;;;;;;1.30;1.20;;;;;;;;;;4219922;34;20279;-64
2022/04/15 06:13:25;;;;;;;1.80;1.20;;;;;;;;;;4218464;34;20125;-66
2022/04/15 06:15:56;;;;;;;0.98;0.98;;;;;;;;;;4219594;34;20114;-65
2022/04/15 06:18:23;;;;;;;1.65;1.50;;;;;;;;;;4219740;34;20219;-66
2022/04/15 06:20:50;;;;;;;1.40;1.30;;;;;;;;;;4219896;34;20474;-64
2022/04/15 06:23:17;;;;;;;1.70;1.60;;;;;;;;;;4206979;34;20227;-67
2022/04/15 06:25:44;;;;;;;9.35;2.75;;;;;;;;;;4206377;34;20093;-67
2022/04/15 06:28:10;;;;;;;3.10;1.40;;;;;;;;;;4219503;34;20133;-66
2022/04/15 06:30:36;;;;;;;1.45;1.35;;;;;;;;;;4219500;33;20462;-65
2022/04/15 06:33:05;;;;;;;1.55;1.30;;;;;;;;;;4209796;34;20537;-64
2022/04/15 06:35:32;;;;;;;1.17;1.17;;;;;;;;;;4205738;34;20506;-64
2022/04/15 06:37:58;;;;;;;1.23;1.23;;;;;;;;;;4205547;34;20109;-64
2022/04/15 06:40:24;;;;;;;1.05;1.05;;;;;;;;;;4205772;34;20129;-64
2022/04/15 06:42:50;;;;;;;1.10;1.10;;;;;;;;;;4204584;34;20105;-64
2022/04/15 06:45:16;;;;;;;2.12;1.10;;;;;;;;;;4205641;34;20105;-65
2022/04/15 06:47:42;;;;;;;1.30;1.20;;;;;;;;;;4192259;34;20098;-63
2022/04/15 06:50:09;;;;;;;1.10;1.10;;;;;;;;;;4192498;34;20181;-63
2022/04/15 06:52:35;;;;;;;0.80;0.80;;;;;;;;;;4205332;34;20537;-64
2022/04/15 06:55:01;;;;;;;0.93;0.93;;;;;;;;;;4204858;34;20209;-63
2022/04/15 06:57:26;;;;;;;1.00;1.00;;;;;;;;;;4205761;34;20098;-68
2022/04/15 06:59:52;;;;;;;1.00;1.00;;;;;;;;;;4205356;34;20224;-64
2022/04/15 07:02:18;;;;;;;0.93;0.93;;;;;;;;;;4205403;34;20208;-63
2022/04/15 07:04:44;;;;;;;2.70;1.20;;;;;;;;;;4192647;34;20106;-63
2022/04/15 07:07:10;;;;;;;1.45;1.20;;;;;;;;;;4205297;34;20128;-63
2022/04/15 07:09:36;;;;;;;1.10;1.10;;;;;;;;;;4205342;34;20110;-62
2022/04/15 07:12:02;;;;;;;0.90;0.90;;;;;;;;;;4192499;34;20172;-62
2022/04/15 07:14:29;;;;;;;1.10;1.10;;;;;;;;;;4203954;34;20132;-63
2022/04/15 07:16:55;;;;;;;1.30;1.20;;;;;;;;;;4205314;34;20129;-63
2022/04/15 07:19:21;;;;;;;1.00;1.00;;;;;;;;;;4205159;34;20593;-63
2022/04/15 07:21:47;;;;;;;1.10;1.10;;;;;;;;;;4205154;34;20186;-63
2022/04/15 07:24:13;;;;;;;1.10;1.10;;;;;;;;;;4206121;34;20126;-62
2022/04/15 07:26:39;;;;;;;1.00;1.00;;;;;;;;;;4219217;34;20121;-63
2022/04/15 07:29:06;;;;;;;1.25;1.20;;;;;;;;;;4219062;33;20128;-62
2022/04/15 07:31:33;;;;;;;1.17;1.08;;;;;;;;;;4219115;34;20113;-62
2022/04/15 07:33:58;;;;;;;1.70;1.10;;;;;;;;;;4218934;34;20120;-63
2022/04/15 07:39:00;;;;;;;1.00;0.95;;;;;;;;;;4218977;34;20537;-65
2022/04/15 07:41:26;;;;;;;1.45;1.35;;;;;;;;;;4218749;34;20533;-67
2022/04/15 07:43:52;;;;;;;3.30;1.55;;;;;;;;;;4217430;34;20133;-62
2022/04/15 07:46:18;;;;;;;1.23;1.20;;;;;;;;;;4217370;34;20105;-61
2022/04/15 07:48:44;;;;;;;1.20;1.20;;;;;;;;;;4218913;34;20609;-61
2022/04/15 07:51:10;;;;;;;1.00;1.00;;;;;;;;;;4218779;34;20120;-61
2022/04/15 07:53:36;;;;;;;1.12;1.08;;;;;;;;;;4218898;34;20540;-61
2022/04/15 07:56:02;;;;;;;1.30;1.20;;;;;;;;;;4218662;34;20125;-60
2022/04/15 07:58:29;;;;;;;1.35;1.25;;;;;;;;;;4218684;34;20113;-62
2022/04/15 08:00:55;;;;;;;1.40;1.30;;;;;;;;;;4218852;34;20109;-61
2022/04/15 08:03:25;;;;;;;2.25;1.35;;;;;;;;;;4205931;34;20129;-60
2022/04/15 08:05:51;;;;;;;1.30;1.20;;;;;;;;;;4218622;34;20188;-62
2022/04/15 08:08:17;;;;;;;3.08;1.48;;;;;;;;;;4217770;34;20544;-61
2022/04/15 08:10:43;;;;;;;2.58;1.40;;;;;;;;;;4218726;34;20193;-62
2022/04/15 08:13:09;;;;;;;1.85;1.17;;;;;;;;;;4193992;34;20097;-62
2022/04/15 08:15:35;;;;;;;1.60;1.50;;;;;;;;;;4205693;34;20523;-63
2022/04/15 08:18:02;;;;;;;1.30;1.20;;;;;;;;;;4218590;34;20537;-61
2022/04/15 08:20:28;;;;;;;1.60;1.50;;;;;;;;;;4218599;34;20113;-62
2022/04/15 08:22:54;;;;;;;1.40;1.30;;;;;;;;;;4218476;33;20105;-63
2022/04/15 08:25:19;;;;;;;2.58;1.45;;;;;;;;;;4218433;34;20109;-63
2022/04/15 08:27:45;;;;;;;1.83;1.52;;;;;;;;;;4218345;33;20123;-62
2022/04/15 08:30:12;;;;;;;1.80;1.70;;;;;;;;;;4218453;34;20247;-63
2022/04/15 08:32:38;;;;;;;1.85;1.52;;;;;;;;;;4218462;34;20193;-62
2022/04/15 08:35:06;;;;;;;1.70;1.60;;;;;;;;;;4218447;34;20604;-63
2022/04/15 08:37:33;;;;;;;1.50;1.40;;;;;;;;;;4218319;34;20098;-63
2022/04/15 08:40:00;;;;;;;1.77;1.62;;;;;;;;;;4218705;34;20201;-62
2022/04/15 08:42:26;;;;;;;1.75;1.65;;;;;;;;;;4218241;34;20093;-61
2022/04/15 08:44:53;;;;;;;2.60;1.60;;;;;;;;;;4218623;34;20124;-63
2022/04/15 08:47:20;;;;;;;3.30;1.70;;;;;;;;;;4218269;34;20769;-62
2022/04/15 08:49:48;;;;;;;1.70;1.60;;;;;;;;;;4218708;34;20125;-63
2022/04/15 08:52:15;;;;;;;1.67;1.58;;;;;;;;;;4217935;34;20511;-63
2022/04/15 08:54:42;;;;;;;2.40;1.85;;;;;;;;;;4218465;34;20462;-61
2022/04/15 08:57:08;;;;;;;2.80;2.25;;;;;;;;;;4205149;34;20152;-62
2022/04/15 08:59:34;;;;;;;2.65;1.80;;;;;;;;;;4218319;34;20135;-63
2022/04/15 09:02:00;;;;;;;2.80;1.90;;;;;;;;;;4218219;34;20113;-62
2022/04/15 09:04:26;;;;;;;2.67;1.80;;;;;;;;;;4218469;34;20128;-63
2022/04/15 09:06:56;;;;;;;2.45;1.95;;;;;;;;;;4218343;33;20321;-62
2022/04/15 09:09:29;;;;;;;2.40;2.20;;;;;;;;;;4218329;34;20135;-61
2022/04/15 09:11:56;;;;;;;2.67;1.90;;;;;;;;;;4218052;34;20105;-64
2022/04/15 09:14:22;;;;;;;2.15;1.90;;;;;;;;;;4216955;34;20217;-63
2022/04/15 09:16:48;;;;;;;3.37;2.30;;;;;;;;;;4218030;34;20102;-62
2022/04/15 09:19:15;;;;;;;2.45;1.75;;;;;;;;;;4217979;34;20216;-62
2022/04/15 09:21:49;;;;;;;2.37;2.10;;;;;;;;;;4217659;34;20121;-62
2022/04/15 09:24:17;;;;;;;2.47;2.10;;;;;;;;;;4217957;34;20124;-63
2022/04/15 09:26:46;;;;;;;2.35;2.15;;;;;;;;;;4217752;34;20650;-63
2022/04/15 09:29:13;;;;;;;2.15;1.95;;;;;;;;;;4218170;34;20113;-63
2022/04/15 09:31:38;;;;;;;2.25;1.92;;;;;;;;;;4216350;34;20093;-64
2022/04/15 09:34:07;;;;;;;2.10;1.65;;;;;;;;;;4217981;34;20123;-64
2022/04/15 09:36:37;;;;;;;2.42;2.05;;;;;;;;;;4217585;34;20225;-63
2022/04/15 09:39:10;;;;;;;2.40;2.20;;;;;;;;;;4215384;34;20124;-63
2022/04/15 09:41:38;;;;;;;3.55;2.10;;;;;;;;;;4213691;34;20208;-63
2022/04/15 09:44:04;;;;;;;2.75;2.17;;;;;;;;;;4213744;34;20113;-64
2022/04/15 09:46:31;;;;;;;2.30;2.10;;;;;;;;;;4213247;34;20521;-64
2022/04/15 09:49:07;;;;;;;2.42;1.65;;;;;;;;;;4204124;34;20470;-63
2022/04/15 09:51:36;;;;;;;2.20;1.80;;;;;;;;;;4203211;34;20128;-64
2022/04/15 09:54:06;;;;;;;2.35;2.15;;;;;;;;;;4204062;34;20113;-64
2022/04/15 09:56:34;;;;;;;2.58;2.30;;;;;;;;;;4191819;34;20586;-63
2022/04/15 09:59:04;;;;;;;3.15;2.30;;;;;;;;;;4203658;34;20223;-64
2022/04/15 10:01:32;;;;;;;2.20;2.00;;;;;;;;;;4202990;34;20117;-64
2022/04/15 10:04:00;;;;;;;2.15;1.90;;;;;;;;;;4203761;34;20589;-63
2022/04/15 10:06:26;;;;;;;1.92;1.73;;;;;;;;;;4203472;34;20148;-63
2022/04/15 10:08:53;;;;;;;2.78;2.00;;;;;;;;;;4203691;34;20189;-62
2022/04/15 10:11:19;;;;;;;3.12;2.10;;;;;;;;;;4203585;34;20550;-63
2022/04/15 10:13:45;;;;;;;2.30;1.75;;;;;;;;;;4203546;34;20097;-64
2022/04/15 10:16:13;;;;;;;2.42;2.10;;;;;;;;;;4203860;34;20110;-64
2022/04/15 10:18:41;;;;;;;3.97;2.17;;;;;;;;;;4203679;34;20518;-64
2022/04/15 10:21:07;;;;;;;2.72;2.15;;;;;;;;;;4203725;34;20121;-64
2022/04/15 10:23:34;;;;;;;2.33;2.10;;;;;;;;;;4203643;34;20189;-63
2022/04/15 10:26:03;;;;;;;2.58;2.10;;;;;;;;;;4213110;34;20128;-63
2022/04/15 10:28:44;;;;;;;1.90;1.80;;;;;;;;;;4216155;34;20493;-63
2022/04/15 10:31:17;;;;;;;2.83;1.95;;;;;;;;;;4218575;33;20307;-64
2022/04/15 10:33:49;;;;;;;2.47;2.17;;;;;;;;;;4219676;34;20539;-63
2022/04/15 10:36:17;;;;;;;2.35;1.87;;;;;;;;;;4206478;34;20109;-63
2022/04/15 10:39:02;;;;;;;2.83;2.05;;;;;;;;;;4206705;34;20194;-64
2022/04/15 10:41:29;;;;;;;2.33;2.00;;;;;;;;;;4219622;34;20205;-64
2022/04/15 10:43:57;;;;;;;1.90;1.80;;;;;;;;;;4219375;34;20505;-63
2022/04/15 10:46:30;;;;;;;2.40;1.80;;;;;;;;;;4206367;34;20109;-62
2022/04/15 10:49:01;;;;;;;3.62;2.17;;;;;;;;;;4219321;34;20113;-63
2022/04/15 10:51:30;;;;;;;2.00;1.75;;;;;;;;;;4219218;34;20597;-61
2022/04/15 10:54:51;;;;;;;2.60;1.83;;;;;;;;;;4219682;33;20140;-63
2022/04/15 10:57:18;;;;;;;3.17;2.05;;;;;;;;;;4206405;34;20102;-65
2022/04/15 11:02:41;;;;;;;2.87;2.30;;;;;;;;;;4218957;34;20110;-65
2022/04/15 11:05:14;;;;;;;1.92;1.80;;;;;;;;;;4217843;34;20125;-65
2022/04/15 11:07:51;;;;;;;2.22;2.00;;;;;;;;;;4206434;34;20107;-64
2022/04/15 11:10:37;;;;;;;2.62;2.10;;;;;;;;;;4219209;34;20136;-65
2022/04/15 11:13:04;;;;;;;2.67;1.95;;;;;;;;;;4219326;34;20120;-64
2022/04/15 11:15:53;;;;;;;3.00;2.17;;;;;;;;;;4219513;34;20192;-65
2022/04/15 11:18:19;;;;;;;2.30;2.10;;;;;;;;;;4218968;34;20112;-64
2022/04/15 11:20:45;;;;;;;2.85;2.00;;;;;;;;;;4219383;33;20467;-64
2022/04/15 11:23:12;;;;;;;2.17;1.95;;;;;;;;;;4218820;34;20193;-64
2022/04/15 11:25:45;;;;;;;1.90;1.80;;;;;;;;;;4219310;34;20129;-64
2022/04/15 11:28:11;;;;;;;2.55;2.17;;;;;;;;;;4218846;34;20136;-63
2022/04/15 11:30:37;;;;;;;2.33;1.83;;;;;;;;;;4219289;34;20116;-64
2022/04/15 11:33:04;;;;;;;2.83;1.80;;;;;;;;;;4218967;34;20110;-65
2022/04/15 11:35:33;;;;;;;4.37;1.92;;;;;;;;;;4218940;34;20125;-64
2022/04/15 11:38:12;;;;;;;2.22;1.98;;;;;;;;;;4218752;34;20272;-64
2022/04/15 11:40:38;;;;;;;1.83;1.73;;;;;;;;;;4205889;34;20665;-64
2022/04/15 11:43:07;;;;;;;2.00;1.73;;;;;;;;;;4218822;34;20220;-63
2022/04/15 11:45:41;;;;;;;2.17;1.83;;;;;;;;;;4219040;34;20093;-63
2022/04/15 11:48:21;;;;;;;2.17;1.90;;;;;;;;;;4219169;34;20108;-63
2022/04/15 11:50:48;;;;;;;2.47;1.80;;;;;;;;;;4219033;34;20462;-64
2022/04/15 11:53:15;;;;;;;2.95;2.15;;;;;;;;;;4218725;34;20082;-63
2022/04/15 11:56:02;;;;;;;2.22;2.00;;;;;;;;;;4218990;34;20113;-63
2022/04/15 11:58:35;;;;;;;1.90;1.80;;;;;;;;;;4218707;34;20105;-64
2022/04/15 12:01:02;;;;;;;3.95;1.80;;;;;;;;;;4205988;34;20510;-64
2022/04/15 12:03:29;;;;;;;2.17;1.55;;;;;;;;;;4205715;34;20108;-64
2022/04/15 12:05:59;;;;;;;1.52;1.42;;;;;;;;;;4218750;34;20132;-64
2022/04/15 12:08:25;;;;;;;2.92;1.65;;;;;;;;;;4205740;34;20120;-65
2022/04/15 12:10:51;;;;;;;3.72;2.40;;;;;;;;;;4205712;34;20612;-59
2022/04/15 12:13:18;;;;;;;1.98;1.70;;;;;;;;;;4205642;34;20288;-60
2022/04/15 12:15:45;;;;;;;3.67;1.75;;;;;;;;;;4218628;34;20102;-60
2022/04/15 12:18:11;;;;;;;3.58;1.83;;;;;;;;;;4218589;34;20208;-60
2022/04/15 12:20:38;;;;;;;2.12;1.80;;;;;;;;;;4205780;34;20553;-61
2022/04/15 12:23:05;;;;;;;1.92;1.83;;;;;;;;;;4218292;34;20176;-60
2022/04/15 12:26:05;;;;;;;3.17;1.73;;;;;;;;;;4218443;34;20118;-61
2022/04/15 12:31:02;;;;;;;2.07;1.80;;;;;;;;;;4218550;34;20544;-60
2022/04/15 12:33:28;;;;;;;2.03;1.80;;;;;;;;;;4217018;34;20707;-61
2022/04/15 12:36:02;;;;;;;1.45;1.35;;;;;;;;;;4218810;34;20203;-60
2022/04/15 12:38:29;;;;;;;1.70;1.60;;;;;;;;;;4218390;34;20117;-60
2022/04/15 12:41:04;;;;;;;2.92;1.70;;;;;;;;;;4205442;34;20215;-59
2022/04/15 12:43:30;;;;;;;2.80;1.67;;;;;;;;;;4205289;34;20117;-60
2022/04/15 12:45:58;;;;;;;1.62;1.50;;;;;;;;;;4218130;34;20117;-59
2022/04/15 12:48:24;;;;;;;2.92;1.80;;;;;;;;;;4218211;34;20101;-59
2022/04/15 12:50:58;;;;;;;2.25;1.83;;;;;;;;;;4205143;34;20106;-59
2022/04/15 12:53:26;;;;;;;1.70;1.58;;;;;;;;;;4217595;33;20097;-58
2022/04/15 12:55:53;;;;;;;2.00;1.75;;;;;;;;;;4205360;34;20103;-60
2022/04/15 12:58:21;;;;;;;3.70;1.80;;;;;;;;;;4218095;33;20109;-61
2022/04/15 13:00:51;;;;;;;2.50;1.80;;;;;;;;;;4218241;34;20094;-60
2022/04/15 13:03:25;;;;;;;2.03;1.80;;;;;;;;;;4199406;34;20177;-61
2022/04/15 13:05:53;;;;;;;1.92;1.65;;;;;;;;;;4204452;34;20114;-59
2022/04/15 13:08:20;;;;;;;1.60;1.50;;;;;;;;;;4202824;34;20431;-61
2022/04/15 13:10:47;;;;;;;2.42;1.80;;;;;;;;;;4204428;34;20105;-61
2022/04/15 13:13:14;;;;;;;2.03;1.83;;;;;;;;;;4202866;34;20105;-60
2022/04/15 13:15:40;;;;;;;3.08;1.80;;;;;;;;;;4191501;34;20090;-60
2022/04/15 13:18:07;;;;;;;4.47;2.03;;;;;;;;;;4204043;34;20575;-60
2022/04/15 13:20:33;;;;;;;2.05;1.92;;;;;;;;;;4204161;34;20201;-59
2022/04/15 13:22:59;;;;;;;6.25;2.00;;;;;;;;;;4202688;34;20110;-60
2022/04/15 13:25:26;;;;;;;1.80;1.70;;;;;;;;;;4211624;34;20137;-61
2022/04/15 13:27:52;;;;;;;2.10;1.90;;;;;;;;;;4217644;34;20208;-61
2022/04/15 13:30:18;;;;;;;2.33;2.12;;;;;;;;;;4205034;34;20231;-61
2022/04/15 13:32:44;;;;;;;3.42;2.30;;;;;;;;;;4217695;34;20143;-61
2022/04/15 13:35:09;;;;;;;2.15;1.95;;;;;;;;;;4217808;33;20116;-61
2022/04/15 13:37:36;;;;;;;2.47;1.90;;;;;;;;;;4217792;34;20717;-61
2022/04/15 13:40:03;;;;;;;2.60;2.10;;;;;;;;;;4217933;34;20113;-61
2022/04/15 13:42:29;;;;;;;3.05;2.55;;;;;;;;;;4216619;34;20129;-61
2022/04/15 13:44:55;;;;;;;4.32;2.10;;;;;;;;;;4193405;34;20458;-60
2022/04/15 13:47:21;;;;;;;2.67;2.20;;;;;;;;;;4217715;34;20212;-61
2022/04/15 13:49:48;;;;;;;2.70;1.95;;;;;;;;;;4218145;34;20201;-61
2022/04/15 13:57:48;;;;;;;;;;;;;;;;;;4218004;34;20108;-61
2022/04/15 14:00:16;;;;;;;3.85;2.20;;;;;;;;;;4217529;34;19987;-60
2022/04/15 14:02:43;;;;;;;2.25;2.05;;;;;;;;;;4204912;34;20113;-61
2022/04/15 14:05:09;;;;;;;5.75;2.35;;;;;;;;;;4217608;33;20604;-61
2022/04/15 14:07:35;;;;;;;3.08;2.20;;;;;;;;;;4205816;34;20177;-61
2022/04/15 14:10:02;;;;;;;2.90;2.40;;;;;;;;;;4205501;34;20229;-60
2022/04/15 14:12:28;;;;;;;3.87;2.40;;;;;;;;;;4195073;34;20593;-61
2022/04/15 14:14:54;;;;;;;4.07;2.17;;;;;;;;;;4205902;34;20208;-60
2022/04/15 14:17:21;;;;;;;2.70;2.40;;;;;;;;;;4205052;34;20118;-60
2022/04/15 14:19:47;;;;;;;4.28;2.40;;;;;;;;;;4205466;34;20568;-61
2022/04/15 14:22:14;;;;;;;4.40;2.47;;;;;;;;;;4205280;34;20129;-61
2022/04/15 14:24:40;;;;;;;3.55;2.40;;;;;;;;;;4209067;34;20097;-60
2022/04/15 14:27:06;;;;;;;3.65;2.50;;;;;;;;;;4210264;34;20514;-60
2022/04/15 14:29:33;;;;;;;3.90;2.75;;;;;;;;;;4205467;34;20122;-61
2022/04/15 14:32:03;;;;;;;3.12;2.47;;;;;;;;;;4203801;34;20218;-62
2022/04/15 14:34:31;;;;;;;3.12;2.53;;;;;;;;;;4205404;34;20098;-62
2022/04/15 14:36:58;;;;;;;6.05;2.80;;;;;;;;;;4204934;34;20549;-62
2022/04/15 14:39:24;;;;;;;5.80;2.72;;;;;;;;;;4192776;34;20113;-62
2022/04/15 14:41:50;;;;;;;4.05;2.78;;;;;;;;;;4205001;34;20134;-62
2022/04/15 14:44:16;;;;;;;3.40;2.20;;;;;;;;;;4192097;34;20485;-63
2022/04/15 14:46:42;;;;;;;2.83;2.42;;;;;;;;;;4205056;34;20193;-62
2022/04/15 14:49:08;;;;;;;5.57;2.83;;;;;;;;;;4204200;34;20109;-61
2022/04/15 14:51:34;;;;;;;3.28;2.62;;;;;;;;;;4192537;34;20106;-62
2022/04/15 14:54:00;;;;;;;3.85;2.50;;;;;;;;;;4205215;34;20108;-62
2022/04/15 14:56:26;;;;;;;3.40;2.53;;;;;;;;;;4205302;34;20139;-61
2022/04/15 14:58:52;;;;;;;4.20;2.67;;;;;;;;;;4192471;34;20125;-61
2022/04/15 15:01:21;;;;;;;3.55;2.62;;;;;;;;;;4205098;34;20129;-62
2022/04/15 15:03:48;;;;;;;4.20;2.75;;;;;;;;;;4203913;34;20110;-62
2022/04/15 15:06:14;;;;;;;3.65;2.72;;;;;;;;;;4205379;34;20206;-61
2022/04/15 15:08:40;;;;;;;4.95;3.22;;;;;;;;;;4205357;34;20113;-62
2022/04/15 15:11:09;;;;;;;4.82;3.28;;;;;;;;;;4192235;34;20590;-61
2022/04/15 15:13:36;;;;;;;6.37;3.72;;;;;;;;;;4204811;34;20141;-61
2022/04/15 15:16:04;;;;;;;7.55;3.70;;;;;;;;;;4200185;34;20495;-61
2022/04/15 15:18:31;;;;;;;4.53;3.25;;;;;;;;;;4201643;34;20110;-61
2022/04/15 15:20:57;;;;;;;5.53;3.12;;;;;;;;;;4201061;34;20121;-60